sensor_id;sensor_type;location;lat;lon;timestamp;pressure;altitude;pressure_sealevel;temperature;humidity
61128;BME280;47013;42.664;23.242;2022-12-29T00:01:36;94910.13;;;4.56;96.91
61128;BME280;47013;42.664;23.242;2022-12-29T00:04:02;94900.47;;;4.55;96.87
61128;BME280;47013;42.664;23.242;2022-12-29T00:06:27;94915.50;;;4.56;97.25
61128;BME280;47013;42.664;23.242;2022-12-29T00:08:52;94915.81;;;4.54;97.52
61128;BME280;47013;42.664;23.242;2022-12-29T00:11:19;94917.28;;;4.52;97.11
61128;BME280;47013;42.664;23.242;2022-12-29T00:13:44;94917.19;;;4.48;97.56
61128;BME280;47013;42.664;23.242;2022-12-29T00:16:28;94909.88;;;4.33;97.91
61128;BME280;47013;42.664;23.242;2022-12-29T00:18:54;94913.00;;;4.35;98.26
61128;BME280;47013;42.664;23.242;2022-12-29T00:21:20;94925.19;;;4.32;97.88
61128;BME280;47013;42.664;23.242;2022-12-29T00:24:04;94924.25;;;4.40;98.09
61128;BME280;47013;42.664;23.242;2022-12-29T00:26:50;94928.81;;;4.52;97.77
61128;BME280;47013;42.664;23.242;2022-12-29T00:29:36;94925.78;;;4.54;97.30
61128;BME280;47013;42.664;23.242;2022-12-29T00:32:20;94924.75;;;4.58;96.92
61128;BME280;47013;42.664;23.242;2022-12-29T00:35:04;94932.91;;;4.62;96.58
61128;BME280;47013;42.664;23.242;2022-12-29T00:37:36;94932.56;;;4.63;96.43
61128;BME280;47013;42.664;23.242;2022-12-29T00:40:21;94938.97;;;4.59;95.97
61128;BME280;47013;42.664;23.242;2022-12-29T00:43:05;94946.03;;;4.51;96.02
61128;BME280;47013;42.664;23.242;2022-12-29T00:45:49;94942.06;;;4.45;96.28
61128;BME280;47013;42.664;23.242;2022-12-29T00:48:14;94950.19;;;4.49;95.92
61128;BME280;47013;42.664;23.242;2022-12-29T00:50:39;94947.16;;;4.50;96.18
61128;BME280;47013;42.664;23.242;2022-12-29T00:53:04;94945.94;;;4.48;96.55
61128;BME280;47013;42.664;23.242;2022-12-29T00:55:29;94938.59;;;4.44;96.44
61128;BME280;47013;42.664;23.242;2022-12-29T00:57:55;94944.63;;;4.41;96.47
61128;BME280;47013;42.664;23.242;2022-12-29T01:00:20;94942.19;;;4.36;97.44
61128;BME280;47013;42.664;23.242;2022-12-29T01:02:45;94944.31;;;4.43;97.44
61128;BME280;47013;42.664;23.242;2022-12-29T01:05:10;94941.94;;;4.41;97.13
61128;BME280;47013;42.664;23.242;2022-12-29T01:07:36;94935.78;;;4.41;97.33
61128;BME280;47013;42.664;23.242;2022-12-29T01:10:01;94935.44;;;4.42;97.21
61128;BME280;47013;42.664;23.242;2022-12-29T01:12:35;94932.44;;;4.44;97.01
61128;BME280;47013;42.664;23.242;2022-12-29T01:15:07;94928.50;;;4.41;96.62
61128;BME280;47013;42.664;23.242;2022-12-29T01:17:33;94923.13;;;4.41;96.50
61128;BME280;47013;42.664;23.242;2022-12-29T01:19:58;94938.81;;;4.39;96.22
61128;BME280;47013;42.664;23.242;2022-12-29T01:22:23;94932.75;;;4.42;95.97
61128;BME280;47013;42.664;23.242;2022-12-29T01:24:49;94920.91;;;4.43;96.20
61128;BME280;47013;42.664;23.242;2022-12-29T01:27:14;94926.16;;;4.40;96.08
61128;BME280;47013;42.664;23.242;2022-12-29T01:29:39;94920.78;;;4.40;96.08
61128;BME280;47013;42.664;23.242;2022-12-29T01:32:05;94918.03;;;4.36;96.27
61128;BME280;47013;42.664;23.242;2022-12-29T01:34:30;94922.94;;;4.34;95.96
61128;BME280;47013;42.664;23.242;2022-12-29T01:36:55;94910.22;;;4.31;96.30
61128;BME280;47013;42.664;23.242;2022-12-29T01:42:30;94905.63;;;4.32;96.61
61128;BME280;47013;42.664;23.242;2022-12-29T01:44:56;94900.13;;;4.28;96.47
61128;BME280;47013;42.664;23.242;2022-12-29T01:47:26;94898.56;;;4.27;96.12
61128;BME280;47013;42.664;23.242;2022-12-29T01:49:54;94893.22;;;4.27;96.02
61128;BME280;47013;42.664;23.242;2022-12-29T01:52:20;94896.25;;;4.26;96.02
61128;BME280;47013;42.664;23.242;2022-12-29T01:54:48;94895.56;;;4.29;95.86
61128;BME280;47013;42.664;23.242;2022-12-29T01:57:20;94900.13;;;4.28;95.75
61128;BME280;47013;42.664;23.242;2022-12-29T01:59:49;94897.91;;;4.30;95.50
61128;BME280;47013;42.664;23.242;2022-12-29T02:02:17;94894.44;;;4.30;96.07
61128;BME280;47013;42.664;23.242;2022-12-29T02:04:42;94892.56;;;4.30;96.38
61128;BME280;47013;42.664;23.242;2022-12-29T02:07:15;94890.31;;;4.32;96.24
61128;BME280;47013;42.664;23.242;2022-12-29T02:09:41;94886.50;;;4.33;96.90
61128;BME280;47013;42.664;23.242;2022-12-29T02:12:07;94886.50;;;4.33;96.67
61128;BME280;47013;42.664;23.242;2022-12-29T02:14:32;94884.50;;;4.30;97.29
61128;BME280;47013;42.664;23.242;2022-12-29T02:17:05;94887.97;;;4.31;97.07
61128;BME280;47013;42.664;23.242;2022-12-29T02:27:52;94889.88;;;4.30;96.90
61128;BME280;47013;42.664;23.242;2022-12-29T02:33:37;94883.47;;;4.35;96.98
61128;BME280;47013;42.664;23.242;2022-12-29T02:35:56;94886.84;;;4.32;97.14
61128;BME280;47013;42.664;23.242;2022-12-29T02:38:41;94883.81;;;4.33;97.10
61128;BME280;47013;42.664;23.242;2022-12-29T02:46:10;94895.50;;;4.41;96.40
61128;BME280;47013;42.664;23.242;2022-12-29T02:48:50;94893.94;;;4.40;96.08
61128;BME280;47013;42.664;23.242;2022-12-29T02:53:42;94885.53;;;4.41;96.44
61128;BME280;47013;42.664;23.242;2022-12-29T02:56:26;94889.88;;;4.30;96.30
61128;BME280;47013;42.664;23.242;2022-12-29T02:58:52;94883.59;;;4.26;97.13
61128;BME280;47013;42.664;23.242;2022-12-29T03:01:33;94882.81;;;4.26;97.01
61128;BME280;47013;42.664;23.242;2022-12-29T03:06:47;94869.16;;;4.31;97.27
61128;BME280;47013;42.664;23.242;2022-12-29T03:17:46;94860.78;;;4.32;95.82
61128;BME280;47013;42.664;23.242;2022-12-29T03:20:18;94858.75;;;4.29;95.55
61128;BME280;47013;42.664;23.242;2022-12-29T03:22:47;94859.44;;;4.26;95.63
61128;BME280;47013;42.664;23.242;2022-12-29T03:25:22;94859.34;;;4.23;95.43
61128;BME280;47013;42.664;23.242;2022-12-29T03:27:49;94858.13;;;4.20;95.52
61128;BME280;47013;42.664;23.242;2022-12-29T03:30:16;94860.19;;;4.11;95.24
61128;BME280;47013;42.664;23.242;2022-12-29T03:32:42;94864.56;;;4.03;94.99
61128;BME280;47013;42.664;23.242;2022-12-29T03:35:10;94868.16;;;3.95;95.03
61128;BME280;47013;42.664;23.242;2022-12-29T03:37:58;94868.38;;;3.90;94.76
61128;BME280;47013;42.664;23.242;2022-12-29T03:40:22;94868.44;;;3.78;94.63
61128;BME280;47013;42.664;23.242;2022-12-29T03:42:48;94868.56;;;3.69;95.11
61128;BME280;47013;42.664;23.242;2022-12-29T03:45:14;94869.03;;;3.59;95.64
61128;BME280;47013;42.664;23.242;2022-12-29T03:47:39;94867.81;;;3.57;95.85
61128;BME280;47013;42.664;23.242;2022-12-29T03:50:05;94874.41;;;3.47;95.91
61128;BME280;47013;42.664;23.242;2022-12-29T03:52:30;94879.56;;;3.40;95.75
61128;BME280;47013;42.664;23.242;2022-12-29T03:54:55;94876.66;;;3.33;95.84
61128;BME280;47013;42.664;23.242;2022-12-29T03:57:21;94882.59;;;3.26;96.10
61128;BME280;47013;42.664;23.242;2022-12-29T03:59:46;94889.06;;;3.13;96.60
61128;BME280;47013;42.664;23.242;2022-12-29T04:02:11;94885.69;;;3.04;97.00
61128;BME280;47013;42.664;23.242;2022-12-29T04:04:36;94885.91;;;2.99;98.09
61128;BME280;47013;42.664;23.242;2022-12-29T04:07:02;94898.50;;;2.98;98.28
61128;BME280;47013;42.664;23.242;2022-12-29T04:09:27;94892.03;;;2.99;98.07
61128;BME280;47013;42.664;23.242;2022-12-29T04:11:52;94897.72;;;2.97;97.70
61128;BME280;47013;42.664;23.242;2022-12-29T04:14:18;94889.25;;;2.95;98.58
61128;BME280;47013;42.664;23.242;2022-12-29T04:16:43;94886.22;;;2.97;97.97
61128;BME280;47013;42.664;23.242;2022-12-29T04:19:08;94891.16;;;2.95;97.35
61128;BME280;47013;42.664;23.242;2022-12-29T04:21:33;94897.41;;;2.99;97.47
61128;BME280;47013;42.664;23.242;2022-12-29T04:23:59;94888.13;;;2.96;97.01
61128;BME280;47013;42.664;23.242;2022-12-29T04:26:24;94889.59;;;2.94;96.86
61128;BME280;47013;42.664;23.242;2022-12-29T04:28:49;94898.75;;;2.93;96.86
61128;BME280;47013;42.664;23.242;2022-12-29T04:31:15;94898.63;;;2.89;97.28
61128;BME280;47013;42.664;23.242;2022-12-29T04:33:40;94894.84;;;2.90;96.96
61128;BME280;47013;42.664;23.242;2022-12-29T04:36:05;94897.06;;;2.88;97.20
61128;BME280;47013;42.664;23.242;2022-12-29T04:38:31;94890.16;;;2.87;97.61
61128;BME280;47013;42.664;23.242;2022-12-29T04:40:58;94907.00;;;2.88;97.82
61128;BME280;47013;42.664;23.242;2022-12-29T04:43:24;94900.88;;;2.87;97.60
61128;BME280;47013;42.664;23.242;2022-12-29T04:45:49;94913.13;;;2.88;98.25
61128;BME280;47013;42.664;23.242;2022-12-29T04:48:14;94918.50;;;2.88;98.97
61128;BME280;47013;42.664;23.242;2022-12-29T04:50:40;94916.25;;;2.90;99.02
61128;BME280;47013;42.664;23.242;2022-12-29T04:53:05;94923.19;;;2.91;99.13
61128;BME280;47013;42.664;23.242;2022-12-29T04:55:30;94921.72;;;2.94;99.28
61128;BME280;47013;42.664;23.242;2022-12-29T04:57:56;94924.06;;;2.95;99.50
61128;BME280;47013;42.664;23.242;2022-12-29T05:00:21;94919.94;;;2.98;99.47
61128;BME280;47013;42.664;23.242;2022-12-29T05:02:47;94927.66;;;3.00;99.48
61128;BME280;47013;42.664;23.242;2022-12-29T05:05:12;94920.53;;;3.04;99.35
61128;BME280;47013;42.664;23.242;2022-12-29T05:07:37;94923.88;;;3.01;99.65
61128;BME280;47013;42.664;23.242;2022-12-29T05:10:03;94923.66;;;3.06;99.97
61128;BME280;47013;42.664;23.242;2022-12-29T05:12:30;94934.03;;;3.07;100.00
61128;BME280;47013;42.664;23.242;2022-12-29T05:14:55;94931.34;;;3.07;99.81
61128;BME280;47013;42.664;23.242;2022-12-29T05:20:23;94933.50;;;3.14;100.00
61128;BME280;47013;42.664;23.242;2022-12-29T05:22:48;94937.41;;;3.16;100.00
61128;BME280;47013;42.664;23.242;2022-12-29T05:25:14;94934.81;;;3.20;100.00
61128;BME280;47013;42.664;23.242;2022-12-29T05:27:39;94924.69;;;3.25;100.00
61128;BME280;47013;42.664;23.242;2022-12-29T05:30:04;94923.69;;;3.30;100.00
61128;BME280;47013;42.664;23.242;2022-12-29T05:32:30;94923.69;;;3.30;100.00
61128;BME280;47013;42.664;23.242;2022-12-29T05:34:55;94927.91;;;3.31;100.00
61128;BME280;47013;42.664;23.242;2022-12-29T05:37:20;94928.34;;;3.33;100.00
61128;BME280;47013;42.664;23.242;2022-12-29T05:39:46;94923.88;;;3.37;100.00
61128;BME280;47013;42.664;23.242;2022-12-29T05:42:11;94927.25;;;3.46;100.00
61128;BME280;47013;42.664;23.242;2022-12-29T05:44:36;94927.34;;;3.50;100.00
61128;BME280;47013;42.664;23.242;2022-12-29T05:47:01;94933.63;;;3.54;100.00
61128;BME280;47013;42.664;23.242;2022-12-29T05:49:27;94933.63;;;3.54;100.00
61128;BME280;47013;42.664;23.242;2022-12-29T05:54:54;94932.25;;;3.60;99.85
61128;BME280;47013;42.664;23.242;2022-12-29T05:57:20;94936.94;;;3.63;99.97
61128;BME280;47013;42.664;23.242;2022-12-29T05:59:45;94942.78;;;3.65;99.66
61128;BME280;47013;42.664;23.242;2022-12-29T06:02:10;94936.84;;;3.72;99.64
61128;BME280;47013;42.664;23.242;2022-12-29T06:04:35;94941.09;;;3.73;99.02
61128;BME280;47013;42.664;23.242;2022-12-29T06:07:01;94941.97;;;3.77;98.79
61128;BME280;47013;42.664;23.242;2022-12-29T06:09:26;94943.22;;;3.79;98.67
61128;BME280;47013;42.664;23.242;2022-12-29T06:11:51;94943.22;;;3.79;98.46
61128;BME280;47013;42.664;23.242;2022-12-29T06:14:16;94938.19;;;3.78;98.37
61128;BME280;47013;42.664;23.242;2022-12-29T06:16:42;94937.38;;;3.77;98.55
61128;BME280;47013;42.664;23.242;2022-12-29T06:19:07;94941.97;;;3.77;98.37
61128;BME280;47013;42.664;23.242;2022-12-29T06:21:33;94939.41;;;3.80;98.68
61128;BME280;47013;42.664;23.242;2022-12-29T06:23:58;94940.38;;;3.88;98.29
61128;BME280;47013;42.664;23.242;2022-12-29T06:26:23;94943.06;;;3.88;97.96
61128;BME280;47013;42.664;23.242;2022-12-29T06:28:48;94942.19;;;3.96;97.74
61128;BME280;47013;42.664;23.242;2022-12-29T06:31:14;94942.97;;;3.97;97.43
61128;BME280;47013;42.664;23.242;2022-12-29T06:33:39;94941.94;;;4.01;97.60
61128;BME280;47013;42.664;23.242;2022-12-29T06:36:04;94950.53;;;4.07;97.11
61128;BME280;47013;42.664;23.242;2022-12-29T06:38:30;94949.00;;;4.06;96.88
61128;BME280;47013;42.664;23.242;2022-12-29T06:40:55;94949.41;;;4.08;96.41
61128;BME280;47013;42.664;23.242;2022-12-29T06:43:20;94954.88;;;4.11;96.49
61128;BME280;47013;42.664;23.242;2022-12-29T06:45:46;94953.53;;;4.18;96.44
61128;BME280;47013;42.664;23.242;2022-12-29T06:48:11;94954.53;;;4.13;96.71
61128;BME280;47013;42.664;23.242;2022-12-29T06:50:36;94960.28;;;3.99;97.42
61128;BME280;47013;42.664;23.242;2022-12-29T06:53:02;94951.13;;;3.88;98.24
61128;BME280;47013;42.664;23.242;2022-12-29T06:55:27;94955.59;;;3.96;99.24
61128;BME280;47013;42.664;23.242;2022-12-29T06:57:56;94958.81;;;4.02;98.93
61128;BME280;47013;42.664;23.242;2022-12-29T07:00:22;94955.75;;;4.15;98.42
61128;BME280;47013;42.664;23.242;2022-12-29T07:02:47;94950.84;;;4.30;98.07
61128;BME280;47013;42.664;23.242;2022-12-29T07:05:12;94958.03;;;4.41;97.33
61128;BME280;47013;42.664;23.242;2022-12-29T07:07:38;94954.19;;;4.55;96.80
61128;BME280;47013;42.664;23.242;2022-12-29T07:10:04;94954.50;;;4.65;96.46
61128;BME280;47013;42.664;23.242;2022-12-29T07:12:30;94956.41;;;4.65;94.61
61128;BME280;47013;42.664;23.242;2022-12-29T07:14:55;94956.47;;;4.68;94.32
61128;BME280;47013;42.664;23.242;2022-12-29T07:17:20;94960.16;;;4.76;93.83
61128;BME280;47013;42.664;23.242;2022-12-29T07:19:45;94953.94;;;4.88;94.06
61128;BME280;47013;42.664;23.242;2022-12-29T07:22:11;94961.84;;;4.96;93.39
61128;BME280;47013;42.664;23.242;2022-12-29T07:24:36;94952.41;;;5.02;92.02
61128;BME280;47013;42.664;23.242;2022-12-29T07:27:01;94955.19;;;5.06;91.62
61128;BME280;47013;42.664;23.242;2022-12-29T07:29:26;94955.88;;;5.03;92.38
61128;BME280;47013;42.664;23.242;2022-12-29T07:31:52;94957.63;;;5.11;91.54
61128;BME280;47013;42.664;23.242;2022-12-29T07:34:17;94957.78;;;5.18;91.31
61128;BME280;47013;42.664;23.242;2022-12-29T07:36:42;94960.25;;;5.23;91.47
61128;BME280;47013;42.664;23.242;2022-12-29T07:39:07;94958.84;;;5.29;90.88
61128;BME280;47013;42.664;23.242;2022-12-29T07:41:33;94958.25;;;5.36;90.51
61128;BME280;47013;42.664;23.242;2022-12-29T07:43:59;94954.88;;;5.39;90.09
61128;BME280;47013;42.664;23.242;2022-12-29T07:46:24;94955.03;;;5.46;89.99
61128;BME280;47013;42.664;23.242;2022-12-29T07:48:50;94959.72;;;5.49;90.03
61128;BME280;47013;42.664;23.242;2022-12-29T07:51:15;94957.03;;;5.49;88.93
61128;BME280;47013;42.664;23.242;2022-12-29T07:53:40;94957.13;;;5.53;89.04
61128;BME280;47013;42.664;23.242;2022-12-29T07:56:05;94964.50;;;5.56;89.33
61128;BME280;47013;42.664;23.242;2022-12-29T07:58:31;94967.78;;;5.65;89.24
61128;BME280;47013;42.664;23.242;2022-12-29T08:00:56;94967.88;;;5.69;89.58
61128;BME280;47013;42.664;23.242;2022-12-29T08:03:22;94968.41;;;5.74;88.74
61128;BME280;47013;42.664;23.242;2022-12-29T08:05:47;94966.38;;;5.71;88.55
61128;BME280;47013;42.664;23.242;2022-12-29T08:08:13;94974.63;;;5.78;88.73
61128;BME280;47013;42.664;23.242;2022-12-29T08:10:38;94979.38;;;5.85;87.87
61128;BME280;47013;42.664;23.242;2022-12-29T08:13:03;94983.91;;;5.81;88.09
61128;BME280;47013;42.664;23.242;2022-12-29T08:15:28;94974.78;;;5.85;87.94
61128;BME280;47013;42.664;23.242;2022-12-29T08:17:53;94970.75;;;5.91;87.42
61128;BME280;47013;42.664;23.242;2022-12-29T08:20:19;94973.16;;;6.12;86.93
61128;BME280;47013;42.664;23.242;2022-12-29T08:22:44;94975.25;;;6.38;85.95
61128;BME280;47013;42.664;23.242;2022-12-29T08:25:09;94977.38;;;6.68;84.79
61128;BME280;47013;42.664;23.242;2022-12-29T08:27:35;94973.97;;;6.90;83.40
61128;BME280;47013;42.664;23.242;2022-12-29T08:30:00;94979.38;;;6.90;81.93
61128;BME280;47013;42.664;23.242;2022-12-29T08:32:25;94976.94;;;7.04;81.92
61128;BME280;47013;42.664;23.242;2022-12-29T08:34:53;94973.31;;;7.16;81.11
61128;BME280;47013;42.664;23.242;2022-12-29T08:37:18;94980.59;;;7.16;80.83
61128;BME280;47013;42.664;23.242;2022-12-29T08:39:43;94975.03;;;7.28;80.73
61128;BME280;47013;42.664;23.242;2022-12-29T08:42:08;94981.13;;;7.44;80.43
61128;BME280;47013;42.664;23.242;2022-12-29T08:44:34;94978.34;;;7.40;79.76
61128;BME280;47013;42.664;23.242;2022-12-29T08:46:59;94973.56;;;7.30;78.66
61128;BME280;47013;42.664;23.242;2022-12-29T08:49:24;94978.25;;;7.14;79.01
61128;BME280;47013;42.664;23.242;2022-12-29T08:51:49;94979.94;;;7.22;79.79
61128;BME280;47013;42.664;23.242;2022-12-29T08:54:15;94967.03;;;7.31;79.53
61128;BME280;47013;42.664;23.242;2022-12-29T08:56:40;94966.91;;;7.47;79.36
61128;BME280;47013;42.664;23.242;2022-12-29T08:59:05;94964.75;;;7.56;79.25
61128;BME280;47013;42.664;23.242;2022-12-29T09:01:30;94963.75;;;7.68;78.63
61128;BME280;47013;42.664;23.242;2022-12-29T09:03:56;94972.81;;;7.79;77.87
61128;BME280;47013;42.664;23.242;2022-12-29T09:06:21;94961.22;;;7.79;76.50
61128;BME280;47013;42.664;23.242;2022-12-29T09:08:46;94964.78;;;7.83;76.47
61128;BME280;47013;42.664;23.242;2022-12-29T09:11:14;94953.25;;;7.86;77.06
61128;BME280;47013;42.664;23.242;2022-12-29T09:13:39;94952.63;;;7.69;76.49
61128;BME280;47013;42.664;23.242;2022-12-29T09:16:04;94957.47;;;7.60;76.62
61128;BME280;47013;42.664;23.242;2022-12-29T09:18:30;94949.16;;;7.69;77.23
61128;BME280;47013;42.664;23.242;2022-12-29T09:20:59;94951.06;;;7.68;77.33
61128;BME280;47013;42.664;23.242;2022-12-29T09:23:24;94947.09;;;7.62;76.66
61128;BME280;47013;42.664;23.242;2022-12-29T09:25:50;94947.09;;;7.62;77.62
61128;BME280;47013;42.664;23.242;2022-12-29T09:28:15;94946.50;;;7.73;77.75
61128;BME280;47013;42.664;23.242;2022-12-29T09:30:41;94946.13;;;7.74;77.03
61128;BME280;47013;42.664;23.242;2022-12-29T09:33:06;94937.97;;;7.71;77.45
61128;BME280;47013;42.664;23.242;2022-12-29T09:35:31;94935.41;;;7.55;77.92
61128;BME280;47013;42.664;23.242;2022-12-29T09:37:56;94934.38;;;7.63;78.11
61128;BME280;47013;42.664;23.242;2022-12-29T09:40:31;94926.44;;;7.74;78.16
61128;BME280;47013;42.664;23.242;2022-12-29T09:48:04;94927.22;;;7.74;78.23
61128;BME280;47013;42.664;23.242;2022-12-29T09:50:31;94923.91;;;7.84;78.02
61128;BME280;47013;42.664;23.242;2022-12-29T09:55:29;94911.34;;;8.22;76.21
61128;BME280;47013;42.664;23.242;2022-12-29T09:57:57;94910.13;;;8.19;75.47
61128;BME280;47013;42.664;23.242;2022-12-29T10:00:28;94913.50;;;8.13;74.86
61128;BME280;47013;42.664;23.242;2022-12-29T10:02:59;94900.91;;;8.20;75.77
61128;BME280;47013;42.664;23.242;2022-12-29T10:23:27;94896.09;;;9.07;71.73
61128;BME280;47013;42.664;23.242;2022-12-29T10:25:54;94892.03;;;9.28;71.08
61128;BME280;47013;42.664;23.242;2022-12-29T10:28:21;94897.97;;;9.40;71.18
61128;BME280;47013;42.664;23.242;2022-12-29T10:30:48;94888.72;;;9.45;70.35
61128;BME280;47013;42.664;23.242;2022-12-29T10:33:21;94887.56;;;9.50;70.82
61128;BME280;47013;42.664;23.242;2022-12-29T10:35:48;94890.38;;;9.60;69.95
61128;BME280;47013;42.664;23.242;2022-12-29T10:40:43;94880.88;;;9.84;69.56
61128;BME280;47013;42.664;23.242;2022-12-29T10:45:53;94875.22;;;10.14;68.39
61128;BME280;47013;42.664;23.242;2022-12-29T10:48:23;94865.97;;;10.19;67.31
61128;BME280;47013;42.664;23.242;2022-12-29T10:50:50;94864.53;;;10.32;67.26
61128;BME280;47013;42.664;23.242;2022-12-29T10:53:22;94868.78;;;10.33;66.68
61128;BME280;47013;42.664;23.242;2022-12-29T10:55:49;94859.16;;;10.50;66.20
61128;BME280;47013;42.664;23.242;2022-12-29T10:58:15;94867.78;;;10.77;64.64
61128;BME280;47013;42.664;23.242;2022-12-29T11:00:40;94863.59;;;11.26;63.57
61128;BME280;47013;42.664;23.242;2022-12-29T11:07:58;94847.22;;;12.18;59.83
61128;BME280;47013;42.664;23.242;2022-12-29T11:13:24;94846.72;;;12.55;57.19
61128;BME280;47013;42.664;23.242;2022-12-29T11:15:42;94841.94;;;12.81;56.81
61128;BME280;47013;42.664;23.242;2022-12-29T11:18:21;94836.13;;;12.79;56.47
61128;BME280;47013;42.664;23.242;2022-12-29T11:20:47;94845.41;;;12.81;55.97
61128;BME280;47013;42.664;23.242;2022-12-29T11:23:30;94832.69;;;12.64;56.48
61128;BME280;47013;42.664;23.242;2022-12-29T11:28:32;94831.25;;;12.38;57.25
61128;BME280;47013;42.664;23.242;2022-12-29T11:31:01;94834.81;;;12.10;57.64
61128;BME280;47013;42.664;23.242;2022-12-29T11:33:37;94832.13;;;11.96;57.95
61128;BME280;47013;42.664;23.242;2022-12-29T11:36:06;94835.28;;;11.73;59.60
61128;BME280;47013;42.664;23.242;2022-12-29T11:38:48;94832.19;;;11.42;59.31
61128;BME280;47013;42.664;23.242;2022-12-29T11:41:19;94828.28;;;11.01;61.25
61128;BME280;47013;42.664;23.242;2022-12-29T11:43:44;94829.03;;;10.90;62.45
61128;BME280;47013;42.664;23.242;2022-12-29T11:46:28;94831.38;;;10.85;62.55
61128;BME280;47013;42.664;23.242;2022-12-29T11:48:55;94832.91;;;10.82;62.91
61128;BME280;47013;42.664;23.242;2022-12-29T11:51:24;94826.31;;;10.80;63.83
61128;BME280;47013;42.664;23.242;2022-12-29T11:53:51;94818.59;;;10.82;64.04
61128;BME280;47013;42.664;23.242;2022-12-29T11:56:19;94824.72;;;10.61;63.79
61128;BME280;47013;42.664;23.242;2022-12-29T11:58:47;94822.75;;;10.54;65.41
61128;BME280;47013;42.664;23.242;2022-12-29T12:04:13;94816.56;;;10.54;65.91
61128;BME280;47013;42.664;23.242;2022-12-29T12:06:47;94815.03;;;10.56;65.36
61128;BME280;47013;42.664;23.242;2022-12-29T12:09:14;94813.06;;;10.50;65.64
61128;BME280;47013;42.664;23.242;2022-12-29T12:11:42;94806.09;;;10.45;66.30
61128;BME280;47013;42.664;23.242;2022-12-29T12:14:14;94804.13;;;10.39;65.42
61128;BME280;47013;42.664;23.242;2022-12-29T12:16:41;94813.78;;;10.32;65.33
61128;BME280;47013;42.664;23.242;2022-12-29T12:19:12;94817.59;;;10.21;66.79
61128;BME280;47013;42.664;23.242;2022-12-29T12:21:42;94805.19;;;10.20;66.47
61128;BME280;47013;42.664;23.242;2022-12-29T12:26:57;94799.44;;;10.21;66.87
61128;BME280;47013;42.664;23.242;2022-12-29T12:30:09;94794.34;;;10.20;66.59
61128;BME280;47013;42.664;23.242;2022-12-29T12:32:23;94794.34;;;10.16;67.50
61128;BME280;47013;42.664;23.242;2022-12-29T12:34:49;94791.22;;;10.07;67.94
61128;BME280;47013;42.664;23.242;2022-12-29T13:00:27;94789.09;;;9.75;67.88
61128;BME280;47013;42.664;23.242;2022-12-29T13:05:26;94788.78;;;9.88;67.99
61128;BME280;47013;42.664;23.242;2022-12-29T13:10:41;94783.75;;;9.86;68.14
61128;BME280;47013;42.664;23.242;2022-12-29T13:15:41;94784.13;;;9.81;67.91
61128;BME280;47013;42.664;23.242;2022-12-29T13:20:55;94787.16;;;9.72;67.99
61128;BME280;47013;42.664;23.242;2022-12-29T13:23:46;94790.94;;;9.57;68.02
61128;BME280;47013;42.664;23.242;2022-12-29T13:26:20;94794.75;;;9.49;68.23
61128;BME280;47013;42.664;23.242;2022-12-29T13:31:20;94802.00;;;9.34;68.97
61128;BME280;47013;42.664;23.242;2022-12-29T13:33:53;94800.44;;;9.30;68.85
61128;BME280;47013;42.664;23.242;2022-12-29T13:38:50;94797.28;;;9.24;69.64
61128;BME280;47013;42.664;23.242;2022-12-29T13:43:42;94793.38;;;9.14;70.28
61128;BME280;47013;42.664;23.242;2022-12-29T13:46:24;94796.84;;;9.11;70.15
61128;BME280;47013;42.664;23.242;2022-12-29T13:48:56;94799.94;;;9.13;70.90
61128;BME280;47013;42.664;23.242;2022-12-29T13:51:23;94793.78;;;9.20;70.80
61128;BME280;47013;42.664;23.242;2022-12-29T13:56:23;94795.00;;;9.26;70.90
61128;BME280;47013;42.664;23.242;2022-12-29T14:04:09;94794.56;;;9.24;71.06
61128;BME280;47013;42.664;23.242;2022-12-29T14:06:35;94795.34;;;9.21;71.22
61128;BME280;47013;42.664;23.242;2022-12-29T14:09:05;94800.00;;;9.24;70.54
61128;BME280;47013;42.664;23.242;2022-12-29T14:11:35;94801.50;;;9.18;70.74
61128;BME280;47013;42.664;23.242;2022-12-29T14:14:18;94801.09;;;9.12;71.03
61128;BME280;47013;42.664;23.242;2022-12-29T14:16:45;94804.88;;;9.04;71.36
61128;BME280;47013;42.664;23.242;2022-12-29T14:21:52;94811.84;;;9.05;72.36
61128;BME280;47013;42.664;23.242;2022-12-29T14:27:25;94817.56;;;8.97;72.45
61128;BME280;47013;42.664;23.242;2022-12-29T14:29:50;94822.16;;;8.93;72.47
61128;BME280;47013;42.664;23.242;2022-12-29T14:34:53;94824.81;;;8.85;73.36
61128;BME280;47013;42.664;23.242;2022-12-29T14:37:35;94819.34;;;8.82;73.72
61128;BME280;47013;42.664;23.242;2022-12-29T14:40:22;94825.09;;;8.77;73.76
61128;BME280;47013;42.664;23.242;2022-12-29T14:42:49;94824.25;;;8.69;73.46
61128;BME280;47013;42.664;23.242;2022-12-29T14:47:41;94825.75;;;8.63;74.36
61128;BME280;47013;42.664;23.242;2022-12-29T14:50:11;94831.47;;;8.58;74.87
61128;BME280;47013;42.664;23.242;2022-12-29T14:52:48;94828.69;;;8.51;75.44
61128;BME280;47013;42.664;23.242;2022-12-29T14:57:48;94835.56;;;8.45;75.45
61128;BME280;47013;42.664;23.242;2022-12-29T15:00:16;94835.78;;;8.33;75.92
61128;BME280;47013;42.664;23.242;2022-12-29T15:02:45;94824.50;;;8.23;76.23
61128;BME280;47013;42.664;23.242;2022-12-29T15:05:20;94829.03;;;8.16;76.74
61128;BME280;47013;42.664;23.242;2022-12-29T15:07:48;94827.81;;;8.10;77.25
61128;BME280;47013;42.664;23.242;2022-12-29T15:10:13;94829.22;;;8.00;77.62
61128;BME280;47013;42.664;23.242;2022-12-29T15:12:48;94827.53;;;7.88;78.59
61128;BME280;47013;42.664;23.242;2022-12-29T15:15:20;94822.84;;;7.55;79.93
61128;BME280;47013;42.664;23.242;2022-12-29T15:17:46;94825.56;;;7.55;80.39
61128;BME280;47013;42.664;23.242;2022-12-29T15:20:32;94818.53;;;7.51;80.94
61128;BME280;47013;42.664;23.242;2022-12-29T15:23:04;94807.34;;;7.49;80.53
61128;BME280;47013;42.664;23.242;2022-12-29T15:25:34;94817.72;;;7.47;81.11
61128;BME280;47013;42.664;23.242;2022-12-29T15:28:10;94811.84;;;7.41;80.94
61128;BME280;47013;42.664;23.242;2022-12-29T15:30:37;94811.97;;;6.99;83.23